sensor_id;sensor_type;location;lat;lon;timestamp;pressure;altitude;pressure_sealevel;temperature;humidity
31088;BME280;17745;55.914;37.554;2023-05-21T00:00:54;99814.56;;;11.78;77.90
31088;BME280;17745;55.914;37.554;2023-05-21T00:03:39;99822.09;;;11.86;77.40
31088;BME280;17745;55.914;37.554;2023-05-21T00:06:40;99818.19;;;11.94;77.29
31088;BME280;17745;55.914;37.554;2023-05-21T00:09:42;99814.56;;;12.00;77.52
31088;BME280;17745;55.914;37.554;2023-05-21T00:13:03;99810.97;;;12.06;77.63
31088;BME280;17745;55.914;37.554;2023-05-21T00:19:52;99806.25;;;12.13;77.36
31088;BME280;17745;55.914;37.554;2023-05-21T00:22:48;99806.50;;;12.12;77.46
31088;BME280;17745;55.914;37.554;2023-05-21T00:25:43;99805.94;;;12.10;77.38
31088;BME280;17745;55.914;37.554;2023-05-21T00:29:08;99808.31;;;12.06;77.44
31088;BME280;17745;55.914;37.554;2023-05-21T00:32:39;99807.25;;;12.07;77.55
31088;BME280;17745;55.914;37.554;2023-05-21T00:39:41;99798.13;;;12.20;77.53
31088;BME280;17745;55.914;37.554;2023-05-21T00:42:44;99800.97;;;12.13;77.80
31088;BME280;17745;55.914;37.554;2023-05-21T00:45:57;99808.88;;;12.08;78.34
31088;BME280;17745;55.914;37.554;2023-05-21T00:48:43;99807.56;;;12.11;78.13
31088;BME280;17745;55.914;37.554;2023-05-21T00:54:32;99799.91;;;12.14;78.07
31088;BME280;17745;55.914;37.554;2023-05-21T00:57:35;99799.91;;;12.14;78.17
31088;BME280;17745;55.914;37.554;2023-05-21T01:00:38;99797.56;;;12.18;77.90
31088;BME280;17745;55.914;37.554;2023-05-21T01:03:36;99801.06;;;12.24;77.81
31088;BME280;17745;55.914;37.554;2023-05-21T01:07:17;99794.78;;;12.30;77.92
31088;BME280;17745;55.914;37.554;2023-05-21T01:11:10;99801.53;;;12.43;77.63
31088;BME280;17745;55.914;37.554;2023-05-21T01:17:28;99797.09;;;12.49;77.32
31088;BME280;17745;55.914;37.554;2023-05-21T01:21:12;99795.97;;;12.44;77.57
31088;BME280;17745;55.914;37.554;2023-05-21T01:24:52;99802.84;;;12.40;77.62
31088;BME280;17745;55.914;37.554;2023-05-21T01:27:44;99802.41;;;12.49;77.69
31088;BME280;17745;55.914;37.554;2023-05-21T01:31:25;99802.97;;;12.51;77.89
31088;BME280;17745;55.914;37.554;2023-05-21T01:34:54;99808.63;;;12.60;77.45
31088;BME280;17745;55.914;37.554;2023-05-21T01:38:36;99800.91;;;12.58;77.37
31088;BME280;17745;55.914;37.554;2023-05-21T01:45:21;99814.28;;;12.68;77.38
31088;BME280;17745;55.914;37.554;2023-05-21T01:48:11;99808.19;;;12.73;77.62
31088;BME280;17745;55.914;37.554;2023-05-21T01:50:46;99807.41;;;12.72;77.42
31088;BME280;17745;55.914;37.554;2023-05-21T01:53:19;99807.16;;;12.74;77.54
31088;BME280;17745;55.914;37.554;2023-05-21T01:55:54;99807.22;;;12.79;77.52
31088;BME280;17745;55.914;37.554;2023-05-21T01:58:34;99805.66;;;12.83;77.55
31088;BME280;17745;55.914;37.554;2023-05-21T02:01:54;99807.78;;;12.86;77.47
31088;BME280;17745;55.914;37.554;2023-05-21T02:04:50;99789.75;;;12.89;76.86
31088;BME280;17745;55.914;37.554;2023-05-21T02:07:37;99809.19;;;12.94;77.15
31088;BME280;17745;55.914;37.554;2023-05-21T02:10:08;99807.12;;;13.01;76.96
31088;BME280;17745;55.914;37.554;2023-05-21T02:13:25;99811.37;;;13.02;77.07
31088;BME280;17745;55.914;37.554;2023-05-21T02:16:24;99804.47;;;13.01;76.47
31088;BME280;17745;55.914;37.554;2023-05-21T02:19:55;99801.56;;;13.03;76.78
31088;BME280;17745;55.914;37.554;2023-05-21T02:22:58;99801.34;;;13.10;76.44
31088;BME280;17745;55.914;37.554;2023-05-21T02:25:53;99803.22;;;13.14;76.69
31088;BME280;17745;55.914;37.554;2023-05-21T02:29:11;99796.69;;;13.27;76.65
31088;BME280;17745;55.914;37.554;2023-05-21T02:31:45;99804.72;;;13.38;76.49
31088;BME280;17745;55.914;37.554;2023-05-21T02:35:23;99799.72;;;13.41;76.56
31088;BME280;17745;55.914;37.554;2023-05-21T02:38:06;99803.50;;;13.51;76.28
31088;BME280;17745;55.914;37.554;2023-05-21T02:40:39;99808.91;;;13.61;76.10
31088;BME280;17745;55.914;37.554;2023-05-21T02:43:32;99804.09;;;13.58;76.26
31088;BME280;17745;55.914;37.554;2023-05-21T02:46:27;99812.34;;;13.62;76.44
31088;BME280;17745;55.914;37.554;2023-05-21T02:49:44;99811.59;;;13.71;76.42
31088;BME280;17745;55.914;37.554;2023-05-21T02:52:35;99812.19;;;13.79;75.96
31088;BME280;17745;55.914;37.554;2023-05-21T02:55:43;99816.69;;;13.78;76.20
31088;BME280;17745;55.914;37.554;2023-05-21T03:01:01;99802.09;;;13.86;75.96
31088;BME280;17745;55.914;37.554;2023-05-21T03:03:38;99814.12;;;13.94;76.46
31088;BME280;17745;55.914;37.554;2023-05-21T03:06:21;99813.88;;;14.00;76.58
31088;BME280;17745;55.914;37.554;2023-05-21T03:09:05;99817.09;;;14.03;76.45
31088;BME280;17745;55.914;37.554;2023-05-21T03:11:52;99809.63;;;14.05;76.32
31088;BME280;17745;55.914;37.554;2023-05-21T03:14:36;99812.03;;;14.06;76.32
31088;BME280;17745;55.914;37.554;2023-05-21T03:17:35;99810.72;;;14.09;76.94
31088;BME280;17745;55.914;37.554;2023-05-21T03:20:33;99813.41;;;14.19;77.04
31088;BME280;17745;55.914;37.554;2023-05-21T03:23:23;99817.69;;;14.25;76.29
31088;BME280;17745;55.914;37.554;2023-05-21T03:26:15;99817.94;;;14.24;76.75
31088;BME280;17745;55.914;37.554;2023-05-21T03:29:26;99821.97;;;14.26;76.48
31088;BME280;17745;55.914;37.554;2023-05-21T03:36:26;99819.53;;;14.25;76.49
31088;BME280;17745;55.914;37.554;2023-05-21T03:38:17;99822.75;;;14.27;76.82
31088;BME280;17745;55.914;37.554;2023-05-21T03:40:46;99821.44;;;14.35;77.10
31088;BME280;17745;55.914;37.554;2023-05-21T03:43:38;99818.28;;;14.43;77.16
31088;BME280;17745;55.914;37.554;2023-05-21T03:46:40;99823.38;;;14.55;76.37
31088;BME280;17745;55.914;37.554;2023-05-21T03:49:24;99823.09;;;14.56;76.77
31088;BME280;17745;55.914;37.554;2023-05-21T03:51:53;99823.13;;;14.67;76.73
31088;BME280;17745;55.914;37.554;2023-05-21T03:54:41;99821.00;;;14.79;76.96
31088;BME280;17745;55.914;37.554;2023-05-21T03:57:11;99819.72;;;14.92;76.60
31088;BME280;17745;55.914;37.554;2023-05-21T04:00:14;99818.13;;;14.91;76.21
31088;BME280;17745;55.914;37.554;2023-05-21T04:02:52;99825.03;;;14.87;75.83
31088;BME280;17745;55.914;37.554;2023-05-21T04:05:37;99817.31;;;14.85;76.17
31088;BME280;17745;55.914;37.554;2023-05-21T04:08:06;99820.50;;;14.82;76.22
31088;BME280;17745;55.914;37.554;2023-05-21T04:10:38;99831.19;;;14.82;76.65
31088;BME280;17745;55.914;37.554;2023-05-21T04:13:11;99822.66;;;14.85;76.59
31088;BME280;17745;55.914;37.554;2023-05-21T04:16:06;99829.03;;;14.90;76.67
31088;BME280;17745;55.914;37.554;2023-05-21T04:19:29;99824.50;;;14.95;76.07
31088;BME280;17745;55.914;37.554;2023-05-21T04:22:24;99828.78;;;14.96;76.48
31088;BME280;17745;55.914;37.554;2023-05-21T04:25:38;99822.12;;;15.04;76.65
31088;BME280;17745;55.914;37.554;2023-05-21T04:30:56;99819.16;;;15.21;76.53
31088;BME280;17745;55.914;37.554;2023-05-21T04:32:35;99822.34;;;15.39;76.37
31088;BME280;17745;55.914;37.554;2023-05-21T04:36:16;99819.38;;;15.56;75.92
31088;BME280;17745;55.914;37.554;2023-05-21T04:40:15;99824.72;;;15.51;75.70
31088;BME280;17745;55.914;37.554;2023-05-21T04:44:18;99824.75;;;15.46;75.55
31088;BME280;17745;55.914;37.554;2023-05-21T04:47:11;99814.88;;;15.46;75.80
31088;BME280;17745;55.914;37.554;2023-05-21T04:51:10;99819.94;;;15.48;76.64
31088;BME280;17745;55.914;37.554;2023-05-21T04:54:44;99814.59;;;15.53;75.95
31088;BME280;17745;55.914;37.554;2023-05-21T04:57:51;99825.50;;;15.67;76.49
31088;BME280;17745;55.914;37.554;2023-05-21T05:00:33;99825.19;;;15.79;76.46
31088;BME280;17745;55.914;37.554;2023-05-21T05:03:11;99822.78;;;15.82;76.21
31088;BME280;17745;55.914;37.554;2023-05-21T05:06:08;99824.13;;;15.80;76.25
31088;BME280;17745;55.914;37.554;2023-05-21T05:13:03;99828.91;;;15.88;75.19
31088;BME280;17745;55.914;37.554;2023-05-21T05:15:37;99834.78;;;15.80;75.88
31088;BME280;17745;55.914;37.554;2023-05-21T05:21:47;99831.06;;;15.76;76.80
31088;BME280;17745;55.914;37.554;2023-05-21T05:24:21;99832.13;;;15.80;75.90
31088;BME280;17745;55.914;37.554;2023-05-21T05:26:52;99835.88;;;15.84;76.52
31088;BME280;17745;55.914;37.554;2023-05-21T05:29:28;99833.72;;;15.86;76.42
31088;BME280;17745;55.914;37.554;2023-05-21T05:31:57;99840.94;;;15.80;76.35
31088;BME280;17745;55.914;37.554;2023-05-21T05:34:26;99836.66;;;15.84;76.59
31088;BME280;17745;55.914;37.554;2023-05-21T05:36:56;99840.16;;;15.90;76.56
31088;BME280;17745;55.914;37.554;2023-05-21T05:39:28;99846.00;;;15.97;76.55
31088;BME280;17745;55.914;37.554;2023-05-21T05:41:59;99843.31;;;15.97;76.49
31088;BME280;17745;55.914;37.554;2023-05-21T05:44:29;99843.84;;;16.05;76.35
31088;BME280;17745;55.914;37.554;2023-05-21T05:46:58;99845.69;;;16.14;76.38
31088;BME280;17745;55.914;37.554;2023-05-21T05:49:38;99844.38;;;16.07;75.05
31088;BME280;17745;55.914;37.554;2023-05-21T05:52:18;99850.50;;;16.07;75.21
31088;BME280;17745;55.914;37.554;2023-05-21T05:54:59;99844.09;;;16.03;74.40
31088;BME280;17745;55.914;37.554;2023-05-21T05:57:32;99842.28;;;15.78;74.23
31088;BME280;17745;55.914;37.554;2023-05-21T06:00:02;99845.81;;;15.57;74.25
31088;BME280;17745;55.914;37.554;2023-05-21T06:02:41;99852.75;;;15.48;75.13
31088;BME280;17745;55.914;37.554;2023-05-21T06:05:09;99851.97;;;15.48;75.37
31088;BME280;17745;55.914;37.554;2023-05-21T06:07:39;99862.09;;;15.46;75.46
31088;BME280;17745;55.914;37.554;2023-05-21T06:10:10;99862.38;;;15.44;75.95
31088;BME280;17745;55.914;37.554;2023-05-21T06:13:06;99860.25;;;15.51;76.19
31088;BME280;17745;55.914;37.554;2023-05-21T06:15:34;99857.53;;;15.62;76.32
31088;BME280;17745;55.914;37.554;2023-05-21T06:18:10;99855.91;;;15.71;76.22
31088;BME280;17745;55.914;37.554;2023-05-21T06:25:02;99864.16;;;15.95;76.36
31088;BME280;17745;55.914;37.554;2023-05-21T06:28:15;99865.66;;;16.27;76.93
31088;BME280;17745;55.914;37.554;2023-05-21T06:30:54;99851.34;;;16.58;75.29
31088;BME280;17745;55.914;37.554;2023-05-21T06:33:26;99853.72;;;16.65;74.80
31088;BME280;17745;55.914;37.554;2023-05-21T06:36:04;99851.56;;;16.67;76.73
31088;BME280;17745;55.914;37.554;2023-05-21T06:38:42;99839.59;;;16.94;76.45
31088;BME280;17745;55.914;37.554;2023-05-21T06:41:50;99846.56;;;17.29;77.40
31088;BME280;17745;55.914;37.554;2023-05-21T06:44:47;99845.25;;;17.81;76.52
31088;BME280;17745;55.914;37.554;2023-05-21T06:48:08;99845.00;;;18.07;75.64
31088;BME280;17745;55.914;37.554;2023-05-21T06:50:47;99850.44;;;18.21;74.40
31088;BME280;17745;55.914;37.554;2023-05-21T06:53:22;99854.22;;;18.20;75.79
31088;BME280;17745;55.914;37.554;2023-05-21T06:56:06;99853.78;;;18.32;76.13
31088;BME280;17745;55.914;37.554;2023-05-21T06:58:44;99844.91;;;18.55;76.29
31088;BME280;17745;55.914;37.554;2023-05-21T07:01:17;99845.88;;;18.98;76.47
31088;BME280;17745;55.914;37.554;2023-05-21T07:04:00;99849.75;;;19.25;76.20
31088;BME280;17745;55.914;37.554;2023-05-21T07:06:33;99852.66;;;19.42;75.45
31088;BME280;17745;55.914;37.554;2023-05-21T07:09:03;99847.91;;;19.39;75.10
31088;BME280;17745;55.914;37.554;2023-05-21T07:11:36;99850.38;;;19.36;75.18
31088;BME280;17745;55.914;37.554;2023-05-21T07:14:38;99853.25;;;19.25;74.66
31088;BME280;17745;55.914;37.554;2023-05-21T07:17:19;99853.28;;;19.06;69.72
31088;BME280;17745;55.914;37.554;2023-05-21T07:20:05;99857.69;;;18.97;74.92
31088;BME280;17745;55.914;37.554;2023-05-21T07:22:44;99853.09;;;18.97;75.05
31088;BME280;17745;55.914;37.554;2023-05-21T07:25:32;99852.91;;;18.94;74.13
31088;BME280;17745;55.914;37.554;2023-05-21T07:28:09;99854.06;;;18.87;72.90
31088;BME280;17745;55.914;37.554;2023-05-21T07:31:00;99853.31;;;18.68;74.11
31088;BME280;17745;55.914;37.554;2023-05-21T07:33:46;99850.03;;;18.71;73.37
31088;BME280;17745;55.914;37.554;2023-05-21T07:36:33;99848.13;;;18.33;72.89
31088;BME280;17745;55.914;37.554;2023-05-21T07:40:03;99847.72;;;18.02;73.49
31088;BME280;17745;55.914;37.554;2023-05-21T07:42:49;99850.84;;;17.84;73.31
31088;BME280;17745;55.914;37.554;2023-05-21T07:45:48;99845.38;;;17.70;73.98
31088;BME280;17745;55.914;37.554;2023-05-21T07:48:32;99849.34;;;17.73;73.68
31088;BME280;17745;55.914;37.554;2023-05-21T07:51:51;99848.56;;;17.72;73.41
31088;BME280;17745;55.914;37.554;2023-05-21T07:54:27;99855.28;;;17.94;75.65
31088;BME280;17745;55.914;37.554;2023-05-21T07:57:04;99853.19;;;18.15;76.10
31088;BME280;17745;55.914;37.554;2023-05-21T07:59:40;99851.94;;;18.51;75.72
31088;BME280;17745;55.914;37.554;2023-05-21T08:02:24;99853.66;;;18.80;76.35
31088;BME280;17745;55.914;37.554;2023-05-21T08:05:16;99851.03;;;19.13;75.74
31088;BME280;17745;55.914;37.554;2023-05-21T08:07:57;99855.94;;;19.39;76.04
31088;BME280;17745;55.914;37.554;2023-05-21T08:11:03;99856.69;;;19.59;76.10
31088;BME280;17745;55.914;37.554;2023-05-21T08:13:39;99855.59;;;19.74;76.70
31088;BME280;17745;55.914;37.554;2023-05-21T08:16:09;99844.34;;;19.72;76.97
31088;BME280;17745;55.914;37.554;2023-05-21T08:18:43;99839.97;;;19.48;75.99
31088;BME280;17745;55.914;37.554;2023-05-21T08:21:14;99842.72;;;19.29;76.42
31088;BME280;17745;55.914;37.554;2023-05-21T08:23:48;99842.91;;;19.33;76.86
31088;BME280;17745;55.914;37.554;2023-05-21T08:26:45;99841.31;;;19.32;77.28
31088;BME280;17745;55.914;37.554;2023-05-21T08:29:28;99837.41;;;19.24;76.05
31088;BME280;17745;55.914;37.554;2023-05-21T08:32:13;99843.63;;;19.05;74.97
31088;BME280;17745;55.914;37.554;2023-05-21T08:35:07;99838.78;;;18.88;76.41
31088;BME280;17745;55.914;37.554;2023-05-21T08:37:43;99832.31;;;18.89;77.14
31088;BME280;17745;55.914;37.554;2023-05-21T08:40:27;99844.56;;;19.14;77.74
31088;BME280;17745;55.914;37.554;2023-05-21T08:43:08;99845.12;;;19.45;77.67
31088;BME280;17745;55.914;37.554;2023-05-21T08:46:00;99838.88;;;19.77;78.05
31088;BME280;17745;55.914;37.554;2023-05-21T08:48:48;99835.03;;;19.97;76.12
31088;BME280;17745;55.914;37.554;2023-05-21T08:51:41;99835.03;;;19.97;77.23
31088;BME280;17745;55.914;37.554;2023-05-21T08:54:40;99840.91;;;19.99;76.70
31088;BME280;17745;55.914;37.554;2023-05-21T08:57:35;99835.91;;;20.07;76.56
31088;BME280;17745;55.914;37.554;2023-05-21T09:00:10;99841.06;;;20.17;77.68
31088;BME280;17745;55.914;37.554;2023-05-21T09:02:44;99845.56;;;20.22;77.32
31088;BME280;17745;55.914;37.554;2023-05-21T09:05:25;99841.03;;;20.31;77.47
31088;BME280;17745;55.914;37.554;2023-05-21T09:08:01;99837.91;;;20.52;76.87
31088;BME280;17745;55.914;37.554;2023-05-21T09:10:50;99845.81;;;20.71;77.10
31088;BME280;17745;55.914;37.554;2023-05-21T09:13:26;99847.06;;;21.10;76.69
31088;BME280;17745;55.914;37.554;2023-05-21T09:16:00;99845.31;;;21.37;76.52
31088;BME280;17745;55.914;37.554;2023-05-21T09:18:34;99843.13;;;21.39;75.88
31088;BME280;17745;55.914;37.554;2023-05-21T09:21:22;99839.34;;;21.49;76.73
31088;BME280;17745;55.914;37.554;2023-05-21T09:24:08;99840.72;;;21.38;75.12
31088;BME280;17745;55.914;37.554;2023-05-21T09:26:41;99825.16;;;21.03;74.35
31088;BME280;17745;55.914;37.554;2023-05-21T09:29:14;99843.91;;;20.71;74.72
31088;BME280;17745;55.914;37.554;2023-05-21T09:31:48;99834.06;;;20.67;75.92
31088;BME280;17745;55.914;37.554;2023-05-21T09:34:42;99834.22;;;20.84;76.06
31088;BME280;17745;55.914;37.554;2023-05-21T09:37:17;99839.34;;;21.18;76.14
31088;BME280;17745;55.914;37.554;2023-05-21T09:40:03;99841.63;;;21.24;74.94
31088;BME280;17745;55.914;37.554;2023-05-21T09:42:49;99850.97;;;21.27;75.27
31088;BME280;17745;55.914;37.554;2023-05-21T09:45:27;99843.34;;;21.61;73.92
31088;BME280;17745;55.914;37.554;2023-05-21T09:48:02;99838.53;;;21.80;75.53
31088;BME280;17745;55.914;37.554;2023-05-21T09:50:46;99843.06;;;22.11;76.40
31088;BME280;17745;55.914;37.554;2023-05-21T09:53:42;99840.06;;;22.22;74.07
31088;BME280;17745;55.914;37.554;2023-05-21T09:56:30;99844.31;;;22.14;74.58
31088;BME280;17745;55.914;37.554;2023-05-21T09:59:16;99845.78;;;22.29;74.06
31088;BME280;17745;55.914;37.554;2023-05-21T10:02:36;99834.84;;;22.25;72.13
31088;BME280;17745;55.914;37.554;2023-05-21T10:05:32;99844.34;;;22.05;72.85
31088;BME280;17745;55.914;37.554;2023-05-21T10:08:04;99829.12;;;22.18;75.30
31088;BME280;17745;55.914;37.554;2023-05-21T10:10:36;99839.34;;;22.48;76.35
31088;BME280;17745;55.914;37.554;2023-05-21T10:13:07;99843.75;;;22.61;75.64
31088;BME280;17745;55.914;37.554;2023-05-21T10:15:45;99839.28;;;22.92;76.26
31088;BME280;17745;55.914;37.554;2023-05-21T10:18:22;99839.25;;;23.27;75.86
31088;BME280;17745;55.914;37.554;2023-05-21T10:21:00;99833.22;;;23.69;75.67
31088;BME280;17745;55.914;37.554;2023-05-21T10:23:33;99838.66;;;23.90;73.46
31088;BME280;17745;55.914;37.554;2023-05-21T10:26:13;99837.16;;;23.72;72.67
31088;BME280;17745;55.914;37.554;2023-05-21T10:28:47;99835.25;;;23.33;71.79
31088;BME280;17745;55.914;37.554;2023-05-21T10:31:33;99831.84;;;22.89;71.01
31088;BME280;17745;55.914;37.554;2023-05-21T10:34:13;99842.63;;;22.36;70.36
31088;BME280;17745;55.914;37.554;2023-05-21T10:36:57;99837.66;;;22.03;71.54
31088;BME280;17745;55.914;37.554;2023-05-21T10:39:34;99829.66;;;21.80;71.11
31088;BME280;17745;55.914;37.554;2023-05-21T10:42:42;99830.22;;;21.59;72.21
31088;BME280;17745;55.914;37.554;2023-05-21T10:45:28;99836.69;;;21.58;71.89
31088;BME280;17745;55.914;37.554;2023-05-21T10:48:22;99836.28;;;21.65;72.18
31088;BME280;17745;55.914;37.554;2023-05-21T10:51:25;99834.72;;;21.81;72.59
31088;BME280;17745;55.914;37.554;2023-05-21T10:57:21;99835.34;;;22.98;74.89
31088;BME280;17745;55.914;37.554;2023-05-21T11:00:12;99834.16;;;24.03;74.31
31088;BME280;17745;55.914;37.554;2023-05-21T11:02:58;99824.75;;;25.19;73.41
31088;BME280;17745;55.914;37.554;2023-05-21T11:05:40;99825.41;;;26.69;69.36
31088;BME280;17745;55.914;37.554;2023-05-21T11:08:21;99814.06;;;28.47;61.99
31088;BME280;17745;55.914;37.554;2023-05-21T11:10:56;99822.06;;;29.26;58.14
31088;BME280;17745;55.914;37.554;2023-05-21T11:13:28;99823.06;;;29.64;57.74
31088;BME280;17745;55.914;37.554;2023-05-21T11:16:05;99811.78;;;30.23;56.58
31088;BME280;17745;55.914;37.554;2023-05-21T11:18:59;99811.78;;;30.23;54.34
31088;BME280;17745;55.914;37.554;2023-05-21T11:21:33;99812.16;;;28.71;55.57
31088;BME280;17745;55.914;37.554;2023-05-21T11:24:09;99820.41;;;27.16;57.93
31088;BME280;17745;55.914;37.554;2023-05-21T11:27:29;99814.66;;;25.66;60.17
31088;BME280;17745;55.914;37.554;2023-05-21T11:30:03;99819.88;;;24.45;62.37
31088;BME280;17745;55.914;37.554;2023-05-21T11:35:37;99827.28;;;23.76;63.66
31088;BME280;17745;55.914;37.554;2023-05-21T11:38:29;99826.59;;;23.58;65.32
31088;BME280;17745;55.914;37.554;2023-05-21T11:41:02;99823.59;;;23.50;64.86
31088;BME280;17745;55.914;37.554;2023-05-21T11:44:01;99822.06;;;23.70;66.21
31088;BME280;17745;55.914;37.554;2023-05-21T11:46:35;99819.84;;;24.03;64.27
31088;BME280;17745;55.914;37.554;2023-05-21T11:49:11;99820.16;;;24.01;64.82
31088;BME280;17745;55.914;37.554;2023-05-21T11:51:50;99823.47;;;23.77;63.82
31088;BME280;17745;55.914;37.554;2023-05-21T11:54:41;99827.00;;;23.21;62.78
31088;BME280;17745;55.914;37.554;2023-05-21T11:57:42;99825.84;;;22.56;62.23
31088;BME280;17745;55.914;37.554;2023-05-21T12:00:19;99829.88;;;22.10;65.08
31088;BME280;17745;55.914;37.554;2023-05-21T12:02:51;99815.56;;;21.83;65.45
31088;BME280;17745;55.914;37.554;2023-05-21T12:05:26;99832.63;;;21.69;66.11
31088;BME280;17745;55.914;37.554;2023-05-21T12:07:58;99827.19;;;21.61;66.14
31088;BME280;17745;55.914;37.554;2023-05-21T12:10:46;99826.41;;;21.60;66.88
31088;BME280;17745;55.914;37.554;2023-05-21T12:13:15;99828.78;;;21.62;64.91
31088;BME280;17745;55.914;37.554;2023-05-21T12:15:44;99823.34;;;21.53;66.51
31088;BME280;17745;55.914;37.554;2023-05-21T12:18:24;99826.81;;;21.45;66.68
31088;BME280;17745;55.914;37.554;2023-05-21T12:20:56;99837.44;;;21.50;66.93
31088;BME280;17745;55.914;37.554;2023-05-21T12:23:38;99832.41;;;21.57;67.07
31088;BME280;17745;55.914;37.554;2023-05-21T12:26:10;99840.31;;;21.53;65.18
31088;BME280;17745;55.914;37.554;2023-05-21T12:28:39;99839.00;;;21.42;66.37
31088;BME280;17745;55.914;37.554;2023-05-21T12:31:14;99845.09;;;21.25;66.66
31088;BME280;17745;55.914;37.554;2023-05-21T12:33:44;99850.69;;;21.06;66.03
31088;BME280;17745;55.914;37.554;2023-05-21T12:36:35;99843.75;;;20.91;66.78
31088;BME280;17745;55.914;37.554;2023-05-21T12:42:01;99847.87;;;21.11;66.89
31088;BME280;17745;55.914;37.554;2023-05-21T12:44:42;99844.94;;;21.62;66.05
31088;BME280;17745;55.914;37.554;2023-05-21T12:47:10;99845.47;;;22.31;65.80
31088;BME280;17745;55.914;37.554;2023-05-21T12:49:42;99839.66;;;22.73;64.83
31088;BME280;17745;55.914;37.554;2023-05-21T12:52:11;99843.53;;;23.19;64.48
31088;BME280;17745;55.914;37.554;2023-05-21T12:54:48;99836.56;;;23.66;63.79
31088;BME280;17745;55.914;37.554;2023-05-21T12:57:26;99836.16;;;24.15;62.39
31088;BME280;17745;55.914;37.554;2023-05-21T12:59:57;99832.59;;;24.45;62.04
31088;BME280;17745;55.914;37.554;2023-05-21T13:02:58;99830.34;;;24.68;62.33
31088;BME280;17745;55.914;37.554;2023-05-21T13:05:27;99831.88;;;25.36;60.05
31088;BME280;17745;55.914;37.554;2023-05-21T13:07:55;99825.13;;;25.43;60.58
31088;BME280;17745;55.914;37.554;2023-05-21T13:10:39;99816.41;;;25.24;59.51
31088;BME280;17745;55.914;37.554;2023-05-21T13:13:41;99834.63;;;24.90;56.94
31088;BME280;17745;55.914;37.554;2023-05-21T13:16:31;99833.81;;;24.90;56.54
31088;BME280;17745;55.914;37.554;2023-05-21T13:19:26;99829.75;;;24.83;55.67
31088;BME280;17745;55.914;37.554;2023-05-21T13:22:14;99832.84;;;24.73;58.06
31088;BME280;17745;55.914;37.554;2023-05-21T13:25:05;99825.16;;;24.96;54.42
31088;BME280;17745;55.914;37.554;2023-05-21T13:28:11;99826.37;;;26.20;54.32
31088;BME280;17745;55.914;37.554;2023-05-21T13:34:17;99821.75;;;26.49;50.66
31088;BME280;17745;55.914;37.554;2023-05-21T13:41:20;99834.28;;;27.10;49.54
31088;BME280;17745;55.914;37.554;2023-05-21T13:44:23;99829.84;;;26.61;49.57
31088;BME280;17745;55.914;37.554;2023-05-21T13:47:40;99824.00;;;26.75;48.06
31088;BME280;17745;55.914;37.554;2023-05-21T13:55:08;99829.97;;;28.09;46.01
31088;BME280;17745;55.914;37.554;2023-05-21T13:58:20;99824.81;;;30.34;41.59
31088;BME280;17745;55.914;37.554;2023-05-21T14:01:37;99827.97;;;31.60;41.47
31088;BME280;17745;55.914;37.554;2023-05-21T14:11:21;99816.25;;;34.04;35.41
31088;BME280;17745;55.914;37.554;2023-05-21T14:15:00;99816.25;;;34.04;35.41
31088;BME280;17745;55.914;37.554;2023-05-21T14:18:37;99820.91;;;34.93;34.12
31088;BME280;17745;55.914;37.554;2023-05-21T14:25:34;99808.41;;;29.73;36.48
31088;BME280;17745;55.914;37.554;2023-05-21T14:29:00;99808.84;;;27.67;39.25
31088;BME280;17745;55.914;37.554;2023-05-21T14:35:58;99811.37;;;25.60;40.82
31088;BME280;17745;55.914;37.554;2023-05-21T14:38:52;99816.22;;;24.83;41.22
31088;BME280;17745;55.914;37.554;2023-05-21T14:41:48;99816.56;;;24.39;43.66
31088;BME280;17745;55.914;37.554;2023-05-21T14:44:30;99813.50;;;23.98;42.74
31088;BME280;17745;55.914;37.554;2023-05-21T14:50:42;99826.41;;;23.63;43.24
31088;BME280;17745;55.914;37.554;2023-05-21T14:53:55;99817.53;;;23.83;41.71
31088;BME280;17745;55.914;37.554;2023-05-21T15:03:06;99807.75;;;29.33;33.87
31088;BME280;17745;55.914;37.554;2023-05-21T15:05:50;99802.13;;;29.22;34.19
31088;BME280;17745;55.914;37.554;2023-05-21T15:08:42;99798.25;;;29.73;33.11
31088;BME280;17745;55.914;37.554;2023-05-21T15:11:18;99796.41;;;30.76;30.72
31088;BME280;17745;55.914;37.554;2023-05-21T15:14:07;99789.63;;;30.63;29.82
31088;BME280;17745;55.914;37.554;2023-05-21T15:16:45;99794.91;;;30.48;29.02
31088;BME280;17745;55.914;37.554;2023-05-21T15:19:24;99796.06;;;30.81;28.01
31088;BME280;17745;55.914;37.554;2023-05-21T15:21:56;99789.34;;;30.03;28.12
31088;BME280;17745;55.914;37.554;2023-05-21T15:24:54;99798.97;;;28.73;29.31
31088;BME280;17745;55.914;37.554;2023-05-21T15:34:03;99804.41;;;26.25;30.09
31088;BME280;17745;55.914;37.554;2023-05-21T15:36:33;99802.97;;;25.40;31.02
31088;BME280;17745;55.914;37.554;2023-05-21T15:39:06;99794.56;;;24.83;31.01
31088;BME280;17745;55.914;37.554;2023-05-21T15:41:51;99805.53;;;24.02;31.68
31088;BME280;17745;55.914;37.554;2023-05-21T15:44:39;99807.56;;;23.45;32.33
31088;BME280;17745;55.914;37.554;2023-05-21T15:47:30;99812.22;;;23.36;32.43
31088;BME280;17745;55.914;37.554;2023-05-21T15:50:11;99811.63;;;23.04;32.57
31088;BME280;17745;55.914;37.554;2023-05-21T15:52:54;99818.06;;;22.64;32.84
31088;BME280;17745;55.914;37.554;2023-05-21T15:55:32;99812.94;;;22.18;33.31
31088;BME280;17745;55.914;37.554;2023-05-21T15:58:38;99812.56;;;21.84;33.75
31088;BME280;17745;55.914;37.554;2023-05-21T16:01:22;99816.25;;;21.57;34.09
31088;BME280;17745;55.914;37.554;2023-05-21T16:04:37;99814.06;;;21.27;34.47
31088;BME280;17745;55.914;37.554;2023-05-21T16:07:42;99821.38;;;21.04;34.77
31088;BME280;17745;55.914;37.554;2023-05-21T16:10:37;99821.59;;;20.85;35.13
31088;BME280;17745;55.914;37.554;2023-05-21T16:13:14;99825.91;;;20.72;35.36